createdAt,value
2018-11-20T00:02:45.236Z,6.60
2018-11-20T00:08:08.993Z,7.50
2018-11-20T00:13:20.907Z,12.27
2018-11-20T00:18:34.865Z,13.23
2018-11-20T00:23:57.254Z,12.97
2018-11-20T00:29:26.620Z,10.67
2018-11-20T00:34:50.439Z,7.80
2018-11-20T00:40:09.726Z,7.30
2018-11-20T00:45:31.968Z,5.43
2018-11-20T00:51:13.661Z,5.90
2018-11-20T00:56:56.247Z,4.70
2018-11-20T01:02:20.035Z,5.00
2018-11-20T01:07:51.218Z,5.73
2018-11-20T01:13:18.737Z,5.73
2018-11-20T01:18:40.604Z,5.83
2018-11-20T01:24:18.770Z,7.93
2018-11-20T01:29:57.536Z,7.27
2018-11-20T01:35:33.524Z,6.43
2018-11-20T01:40:50.729Z,5.97
2018-11-20T01:46:23.782Z,6.67
2018-11-20T01:52:05.434Z,7.23
2018-11-20T01:57:29.242Z,7.37
2018-11-20T02:02:46.426Z,8.83
2018-11-20T02:08:11.462Z,8.67
2018-11-20T02:14:15.447Z,9.17
2018-11-20T02:19:43.705Z,8.07
2018-11-20T02:25:06.025Z,7.27
2018-11-20T02:30:41.955Z,6.50
2018-11-20T02:36:04.334Z,5.77
2018-11-20T02:41:22.300Z,5.23
2018-11-20T02:46:44.754Z,5.67
2018-11-20T02:52:14.950Z,6.53
2018-11-20T02:57:41.565Z,6.10
2018-11-20T03:03:11.160Z,7.37
2018-11-20T03:08:29.287Z,6.40
2018-11-20T03:13:51.663Z,5.70
2018-11-20T03:19:13.890Z,5.00
2018-11-20T03:24:39.836Z,5.00
2018-11-20T03:30:27.214Z,5.00
2018-11-20T03:36:00.934Z,4.83
2018-11-20T03:41:23.338Z,5.70
2018-11-20T03:46:47.085Z,5.63
2018-11-20T03:52:19.468Z,6.20
2018-11-20T03:57:58.497Z,5.47
2018-11-20T04:03:21.051Z,5.80
2018-11-20T04:08:43.659Z,5.03
2018-11-20T04:14:05.813Z,6.10
2018-11-20T04:19:28.229Z,6.00
2018-11-20T04:25:10.132Z,6.10
2018-11-20T04:31:02.104Z,6.13
2018-11-20T04:36:34.537Z,5.93
2018-11-20T04:42:08.224Z,6.40
2018-11-20T04:47:31.970Z,6.57
2018-11-20T04:52:46.453Z,7.43
2018-11-20T04:58:12.740Z,7.03
2018-11-20T05:03:51.547Z,7.73
2018-11-20T05:09:24.175Z,7.10
2018-11-20T05:14:58.489Z,6.90
2018-11-20T05:20:17.999Z,7.37
2018-11-20T05:25:50.743Z,7.50
2018-11-20T05:31:20.407Z,7.37
2018-11-20T05:36:59.889Z,7.73
2018-11-20T05:42:35.549Z,8.07
2018-11-20T05:47:56.575Z,8.73
2018-11-20T05:53:20.326Z,8.07
2018-11-20T05:58:44.071Z,7.73
2018-11-20T06:04:07.820Z,8.60
2018-11-20T06:09:43.660Z,7.63
2018-11-20T06:15:10.252Z,7.37
2018-11-20T06:20:39.598Z,7.17
2018-11-20T06:26:01.644Z,7.60
2018-11-20T06:31:24.296Z,8.50
2018-11-20T06:36:44.788Z,9.23
2018-11-20T06:42:07.599Z,10.30
2018-11-20T06:47:43.547Z,8.97
2018-11-20T06:53:13.881Z,9.90
2018-11-20T06:58:34.674Z,10.60
2018-11-20T07:04:13.401Z,9.13
2018-11-20T07:09:27.668Z,10.73
2018-11-20T07:14:42.777Z,12.77
2018-11-20T07:20:23.959Z,8.80
2018-11-20T07:25:43.805Z,11.43
2018-11-20T07:31:09.579Z,9.70
2018-11-20T07:36:31.862Z,13.53
2018-11-20T07:41:55.452Z,10.63
2018-11-20T07:47:27.831Z,10.67
2018-11-20T07:52:50.236Z,8.77
2018-11-20T07:58:12.406Z,12.43
2018-11-20T08:03:35.109Z,9.20
2018-11-20T08:09:04.835Z,9.30
2018-11-20T08:14:31.170Z,8.10
2018-11-20T08:19:53.425Z,6.83
2018-11-20T08:25:20.928Z,6.40
2018-11-20T08:30:43.264Z,6.43
2018-11-20T08:36:08.722Z,5.37
2018-11-20T08:41:30.928Z,8.10
2018-11-20T08:46:55.360Z,6.83
2018-11-20T08:52:18.518Z,5.77
2018-11-20T08:57:46.675Z,5.93
2018-11-20T09:03:20.739Z,7.37
2018-11-20T09:09:05.549Z,5.37
2018-11-20T09:14:38.252Z,10.27
2018-11-20T09:20:22.549Z,5.93
2018-11-20T09:25:44.804Z,6.63
2018-11-20T09:31:14.146Z,8.63
2018-11-20T09:36:43.817Z,8.17
2018-11-20T09:42:00.172Z,5.80
2018-11-20T09:47:22.403Z,8.23
2018-11-20T09:52:53.066Z,6.83
2018-11-20T09:58:15.390Z,6.30
2018-11-20T10:03:29.431Z,7.83
2018-11-20T10:08:51.761Z,7.33
2018-11-20T10:14:21.620Z,7.20
2018-11-20T10:19:45.957Z,7.57
2018-11-20T10:25:24.881Z,6.60
2018-11-20T10:30:44.976Z,6.20
2018-11-20T10:36:18.253Z,5.73
2018-11-20T10:41:45.175Z,5.93
2018-11-20T10:47:08.814Z,6.23
2018-11-20T10:52:35.366Z,5.90
2018-11-20T10:58:10.891Z,5.73
2018-11-20T11:03:33.301Z,5.90
2018-11-20T11:08:46.192Z,5.47
2018-11-20T11:14:08.620Z,6.23
2018-11-20T11:19:31.090Z,6.60
2018-11-20T11:25:03.651Z,6.93
2018-11-20T11:30:46.588Z,13.20
2018-11-20T11:36:27.300Z,8.70
2018-11-20T11:41:49.536Z,7.87
2018-11-20T11:47:13.311Z,13.53
2018-11-20T11:52:35.830Z,18.67
2018-11-20T11:58:18.806Z,9.30
2018-11-20T12:03:53.836Z,8.33
2018-11-20T12:09:16.356Z,11.83
2018-11-20T12:14:42.960Z,6.47
2018-11-20T12:20:12.677Z,5.93
2018-11-20T12:25:42.431Z,5.07
2018-11-20T12:31:04.713Z,4.60
2018-11-20T12:36:40.719Z,5.10
2018-11-20T12:42:08.189Z,4.87
2018-11-20T12:47:32.060Z,6.03
2018-11-20T12:52:54.125Z,4.60
2018-11-20T12:58:16.731Z,4.40
2018-11-20T13:03:40.694Z,5.33
2018-11-20T13:09:13.433Z,5.37
2018-11-20T13:20:08.249Z,7.70
2018-11-20T13:25:23.629Z,4.90
2018-11-20T13:30:46.142Z,4.43
2018-11-20T13:36:08.473Z,4.53
2018-11-20T13:41:41.706Z,4.27
2018-11-20T13:47:04.378Z,2.80
2018-11-20T13:52:34.148Z,3.57
2018-11-20T13:58:05.732Z,4.43
2018-11-20T14:03:29.578Z,4.10
2018-11-20T14:08:53.425Z,4.67
2018-11-20T14:14:32.998Z,4.57
2018-11-20T14:19:56.174Z,3.37
2018-11-20T14:25:19.362Z,5.17
2018-11-20T14:30:54.993Z,4.67
2018-11-20T14:36:21.828Z,4.00
2018-11-20T14:41:39.241Z,3.93
2018-11-20T14:47:12.587Z,3.83
2018-11-20T14:52:39.566Z,3.73
2018-11-20T14:58:02.196Z,3.43
2018-11-20T15:03:44.121Z,3.70
2018-11-20T15:09:06.450Z,3.87
2018-11-20T15:14:28.700Z,3.80
2018-11-20T15:19:55.370Z,6.60
2018-11-20T15:25:29.234Z,5.20
2018-11-20T15:30:50.338Z,4.47
2018-11-20T15:36:14.914Z,5.50
2018-11-20T15:41:38.156Z,5.30
2018-11-20T15:47:00.634Z,5.80
2018-11-20T15:52:16.545Z,16.60
2018-11-20T15:57:43.339Z,4.43
2018-11-20T16:03:07.453Z,5.83
2018-11-20T16:08:29.801Z,6.20
2018-11-20T16:13:52.826Z,6.53
2018-11-20T16:19:25.417Z,6.90
2018-11-20T16:24:55.401Z,8.43
2018-11-20T16:30:26.518Z,10.57
2018-11-20T16:35:49.224Z,9.67
2018-11-20T16:41:13.627Z,9.37
2018-11-20T16:46:37.388Z,8.93
2018-11-20T16:52:06.085Z,10.17
2018-11-20T16:57:32.790Z,12.37
2018-11-20T17:02:55.318Z,20.60
2018-11-20T17:08:07.387Z,17.50
2018-11-20T17:13:34.557Z,15.30
2018-11-20T17:19:13.848Z,19.33
2018-11-20T17:24:43.569Z,39.80
2018-11-20T17:30:10.106Z,39.97
2018-11-20T17:35:32.684Z,18.63
2018-11-20T17:40:55.214Z,20.50
2018-11-20T17:46:18.997Z,17.87
2018-11-20T17:51:40.044Z,15.13
2018-11-20T17:57:12.695Z,15.90
2018-11-20T18:02:35.026Z,14.43
2018-11-20T18:08:01.663Z,16.40
2018-11-20T18:13:31.329Z,14.17
2018-11-20T18:18:52.898Z,11.17
2018-11-20T18:24:25.648Z,12.00
2018-11-20T18:30:01.398Z,11.13
2018-11-20T18:35:34.713Z,12.97
2018-11-20T18:40:56.962Z,15.10
2018-11-20T18:46:19.480Z,17.53
2018-11-20T18:51:43.505Z,14.97
2018-11-20T18:57:16.150Z,14.97
2018-11-20T19:02:39.404Z,13.90
2018-11-20T19:08:08.950Z,13.93
2018-11-20T19:13:44.874Z,28.70
2018-11-20T19:19:07.465Z,19.83
2018-11-20T19:24:33.776Z,6.60
2018-11-20T19:29:56.403Z,4.37
2018-11-20T19:35:32.278Z,3.10
2018-11-20T19:41:02.060Z,3.67
2018-11-20T19:46:19.372Z,4.37
2018-11-20T19:51:42.143Z,3.60
2018-11-20T19:57:08.809Z,3.70
2018-11-20T20:02:36.538Z,4.33
2018-11-20T20:07:54.590Z,4.37
2018-11-20T20:13:28.206Z,2.83
2018-11-20T20:19:01.213Z,6.00
2018-11-20T20:24:23.922Z,5.40
2018-11-20T20:29:59.750Z,3.90
2018-11-20T20:35:22.395Z,4.07
2018-11-20T20:40:55.004Z,4.17
2018-11-20T20:46:17.599Z,7.47
2018-11-20T20:51:43.965Z,7.90
2018-11-20T20:57:20.320Z,4.97
2018-11-20T21:02:47.125Z,6.53
2018-11-20T21:08:10.925Z,6.50
2018-11-20T21:13:49.499Z,3.73
2018-11-20T21:19:07.072Z,1.93
2018-11-20T21:24:19.357Z,2.60
2018-11-20T21:29:44.766Z,2.40
2018-11-20T21:35:06.817Z,2.77
2018-11-20T21:40:28.234Z,3.50
2018-11-20T21:45:50.340Z,2.90
2018-11-20T21:51:14.429Z,2.20
2018-11-20T21:56:41.859Z,2.40
2018-11-20T22:02:12.748Z,3.40
2018-11-20T22:07:42.368Z,3.60
2018-11-20T22:13:05.122Z,4.17
2018-11-20T22:18:32.472Z,4.63
2018-11-20T22:23:54.954Z,5.30
2018-11-20T22:29:24.306Z,6.10
2018-11-20T22:35:00.429Z,6.40
2018-11-20T22:40:23.419Z,7.60
2018-11-20T22:45:43.273Z,8.20
2018-11-20T22:51:12.950Z,5.33
2018-11-20T22:56:51.591Z,4.57
2018-11-20T23:02:21.416Z,4.87
2018-11-20T23:07:47.361Z,6.37
2018-11-20T23:12:54.893Z,6.37
2018-11-20T23:17:59.785Z,7.57
2018-11-20T23:23:04.572Z,8.27
2018-11-20T23:28:09.270Z,9.47
2018-11-20T23:33:14.067Z,7.33
2018-11-20T23:38:18.811Z,8.07
2018-11-20T23:43:23.638Z,7.50
2018-11-20T23:48:41.790Z,8.10
2018-11-20T23:53:45.590Z,9.13
2018-11-20T23:58:50.940Z,9.53
